createdAt,value
2022-10-15T00:00:26.220Z,8.48
2022-10-15T00:02:53.994Z,8.65
2022-10-15T00:05:21.934Z,8.38
2022-10-15T00:07:51.345Z,8.57
2022-10-15T00:10:19.240Z,8.50
2022-10-15T00:12:46.974Z,8.18
2022-10-15T00:15:14.798Z,8.93
2022-10-15T00:17:42.940Z,9.32
2022-10-15T00:20:12.104Z,8.60
2022-10-15T00:22:40.211Z,9.20
2022-10-15T00:25:11.050Z,8.30
2022-10-15T00:27:39.135Z,8.52
2022-10-15T00:30:08.419Z,9.57
2022-10-15T00:32:36.176Z,8.57
2022-10-15T00:35:04.089Z,8.73
2022-10-15T00:37:31.791Z,9.18
2022-10-15T00:39:59.491Z,8.60
2022-10-15T00:42:28.783Z,9.02
2022-10-15T00:44:58.412Z,8.00
2022-10-15T00:47:29.519Z,8.68
2022-10-15T00:50:01.194Z,8.82
2022-10-15T00:52:34.612Z,9.05
2022-10-15T00:55:06.956Z,8.50
2022-10-15T00:57:36.160Z,8.40
2022-10-15T01:00:07.865Z,8.13
2022-10-15T01:02:35.642Z,8.23
2022-10-15T01:05:03.780Z,7.93
2022-10-15T01:07:31.440Z,8.52
2022-10-15T01:09:59.432Z,8.02
2022-10-15T01:12:44.557Z,8.18
2022-10-15T01:15:17.531Z,8.02
2022-10-15T01:17:48.242Z,8.60
2022-10-15T01:20:45.999Z,8.88
2022-10-15T01:23:44.082Z,8.80
2022-10-15T01:26:27.278Z,8.10
2022-10-15T01:29:08.010Z,8.50
2022-10-15T01:31:41.500Z,8.30
2022-10-15T01:36:52.196Z,8.40
2022-10-15T01:39:24.594Z,8.45
2022-10-15T01:41:54.636Z,8.45
2022-10-15T01:44:25.370Z,7.93
2022-10-15T01:46:58.954Z,8.38
2022-10-15T01:49:30.125Z,8.98
2022-10-15T01:51:58.671Z,8.02
2022-10-15T01:54:27.708Z,8.40
2022-10-15T01:56:56.394Z,8.27
2022-10-15T01:59:26.017Z,8.00
2022-10-15T02:01:57.894Z,8.30
2022-10-15T02:06:59.432Z,8.30
2022-10-15T02:09:33.378Z,7.85
2022-10-15T02:12:09.570Z,8.80
2022-10-15T02:14:45.019Z,8.27
2022-10-15T02:17:16.059Z,8.48
2022-10-15T02:19:49.184Z,7.95
2022-10-15T02:22:20.564Z,8.52
2022-10-15T02:24:55.367Z,7.90
2022-10-15T02:27:23.679Z,8.50
2022-10-15T02:29:52.851Z,8.23
2022-10-15T02:32:23.567Z,7.60
2022-10-15T02:34:52.837Z,8.30
2022-10-15T02:37:23.146Z,8.30
2022-10-15T02:39:51.005Z,9.48
2022-10-15T02:42:19.355Z,7.90
2022-10-15T02:44:47.099Z,8.05
2022-10-15T02:47:15.030Z,8.05
2022-10-15T02:49:44.133Z,7.70
2022-10-15T02:52:11.819Z,7.85
2022-10-15T02:54:39.675Z,7.88
2022-10-15T02:57:07.393Z,7.97
2022-10-15T02:59:35.175Z,7.90
2022-10-15T03:02:03.195Z,7.95
2022-10-15T03:04:30.918Z,7.90
2022-10-15T03:07:00.125Z,8.00
2022-10-15T03:09:28.002Z,8.30
2022-10-15T03:11:55.785Z,7.68
2022-10-15T03:14:23.531Z,8.27
2022-10-15T03:16:51.247Z,8.25
2022-10-15T03:19:19.070Z,7.95
2022-10-15T03:21:46.833Z,7.70
2022-10-15T03:24:15.969Z,8.10
2022-10-15T03:26:43.660Z,7.82
2022-10-15T03:29:11.332Z,8.02
2022-10-15T03:31:39.087Z,7.70
2022-10-15T03:34:06.721Z,8.32
2022-10-15T03:36:34.400Z,7.97
2022-10-15T03:39:02.040Z,8.27
2022-10-15T03:41:31.190Z,7.80
2022-10-15T03:44:01.935Z,8.07
2022-10-15T03:46:29.705Z,8.00
2022-10-15T03:48:57.517Z,8.18
2022-10-15T03:51:27.902Z,8.40
2022-10-15T03:53:56.924Z,8.03
2022-10-15T03:56:24.720Z,8.27
2022-10-15T03:58:53.787Z,8.05
2022-10-15T04:01:21.571Z,7.95
2022-10-15T04:03:49.259Z,8.30
2022-10-15T04:06:16.905Z,8.02
2022-10-15T04:08:44.644Z,8.13
2022-10-15T04:11:12.431Z,7.88
2022-10-15T04:13:40.091Z,8.27
2022-10-15T04:16:09.458Z,8.20
2022-10-15T04:18:37.235Z,7.80
2022-10-15T04:21:05.073Z,8.25
2022-10-15T04:23:32.757Z,7.72
2022-10-15T04:26:01.294Z,8.07
2022-10-15T04:28:29.475Z,8.15
2022-10-15T04:30:58.233Z,8.10
2022-10-15T04:33:27.649Z,7.78
2022-10-15T04:36:02.622Z,7.75
2022-10-15T04:38:30.512Z,7.88
2022-10-15T04:41:02.878Z,8.00
2022-10-15T04:43:30.607Z,8.13
2022-10-15T04:45:59.279Z,8.00
2022-10-15T04:48:29.431Z,8.10
2022-10-15T04:50:57.143Z,7.80
2022-10-15T04:53:24.827Z,7.78
2022-10-15T04:55:52.519Z,8.20
2022-10-15T04:58:20.194Z,7.88
2022-10-15T05:00:47.977Z,8.50
2022-10-15T05:03:15.622Z,7.82
2022-10-15T05:05:44.749Z,8.43
2022-10-15T05:08:12.399Z,8.40
2022-10-15T05:10:40.056Z,8.13
2022-10-15T05:13:07.784Z,8.73
2022-10-15T05:15:35.512Z,8.70
2022-10-15T05:18:03.320Z,8.32
2022-10-15T05:20:30.986Z,8.57
2022-10-15T05:23:00.291Z,8.50
2022-10-15T05:25:27.953Z,8.70
2022-10-15T05:27:56.488Z,8.65
2022-10-15T05:30:24.121Z,8.35
2022-10-15T05:32:53.022Z,7.82
2022-10-15T05:35:20.843Z,8.15
2022-10-15T05:37:49.981Z,8.05
2022-10-15T05:40:21.269Z,8.10
2022-10-15T05:45:25.302Z,7.80
2022-10-15T05:47:55.462Z,8.32
2022-10-15T05:50:23.369Z,8.45
2022-10-15T05:52:51.067Z,8.32
2022-10-15T05:55:20.259Z,8.63
2022-10-15T05:57:47.955Z,8.35
2022-10-15T06:00:16.476Z,8.13
2022-10-15T06:02:44.422Z,8.38
2022-10-15T06:05:12.224Z,8.18
2022-10-15T06:07:40.012Z,8.63
2022-10-15T06:10:08.514Z,8.15
2022-10-15T06:12:39.166Z,8.27
2022-10-15T06:15:07.821Z,8.18
2022-10-15T06:17:35.626Z,8.00
2022-10-15T06:20:03.333Z,8.15
2022-10-15T06:22:31.885Z,8.20
2022-10-15T06:24:59.617Z,8.40
2022-10-15T06:27:27.357Z,8.15
2022-10-15T06:29:56.445Z,8.18
2022-10-15T06:32:24.196Z,9.05
2022-10-15T06:34:52.102Z,8.63
2022-10-15T06:37:19.932Z,8.68
2022-10-15T06:39:47.704Z,8.63
2022-10-15T06:42:15.439Z,8.10
2022-10-15T06:44:43.197Z,8.60
2022-10-15T06:47:12.356Z,8.48
2022-10-15T06:49:40.092Z,8.75
2022-10-15T06:52:07.755Z,8.60
2022-10-15T06:54:35.375Z,8.32
2022-10-15T06:57:03.078Z,8.45
2022-10-15T06:59:30.738Z,8.32
2022-10-15T07:01:58.402Z,8.40
2022-10-15T07:04:27.562Z,8.70
2022-10-15T07:06:55.292Z,8.15
2022-10-15T07:09:23.104Z,8.60
2022-10-15T07:11:50.860Z,8.02
2022-10-15T07:14:18.561Z,8.82
2022-10-15T07:16:46.214Z,8.30
2022-10-15T07:19:14.055Z,8.18
2022-10-15T07:21:43.125Z,9.02
2022-10-15T07:24:10.941Z,9.05
2022-10-15T07:26:38.640Z,8.25
2022-10-15T07:29:06.733Z,8.00
2022-10-15T07:31:34.629Z,9.18
2022-10-15T07:34:02.535Z,8.15
2022-10-15T07:36:30.178Z,8.88
2022-10-15T07:38:59.266Z,8.60
2022-10-15T07:41:26.965Z,8.07
2022-10-15T07:43:54.727Z,8.48
2022-10-15T07:46:22.462Z,8.48
2022-10-15T07:48:50.215Z,8.52
2022-10-15T07:53:47.315Z,8.60
2022-10-15T07:56:17.457Z,8.88
2022-10-15T07:58:51.634Z,9.00
2022-10-15T08:01:20.028Z,8.27
2022-10-15T08:03:48.048Z,8.65
2022-10-15T08:06:15.769Z,8.57
2022-10-15T08:08:43.874Z,9.10
2022-10-15T08:11:14.038Z,8.80
2022-10-15T08:13:43.206Z,8.65
2022-10-15T08:16:11.960Z,8.73
2022-10-15T08:18:40.281Z,8.30
2022-10-15T08:21:09.202Z,8.43
2022-10-15T08:23:37.121Z,8.68
2022-10-15T08:26:04.976Z,9.05
2022-10-15T08:28:34.109Z,8.80
2022-10-15T08:31:05.694Z,9.38
2022-10-15T08:33:34.295Z,9.23
2022-10-15T08:36:02.047Z,8.68
2022-10-15T08:38:31.393Z,8.50
2022-10-15T08:41:00.897Z,8.93
2022-10-15T08:43:32.001Z,8.63
2022-10-15T08:46:05.213Z,8.40
2022-10-15T08:48:34.873Z,8.75
2022-10-15T08:51:05.308Z,8.55
2022-10-15T08:53:38.946Z,8.68
2022-10-15T08:56:15.024Z,9.20
2022-10-15T08:58:47.495Z,9.40
2022-10-15T09:01:24.841Z,9.05
2022-10-15T09:04:00.140Z,8.93
2022-10-15T09:06:30.354Z,8.68
2022-10-15T09:09:01.761Z,9.07
2022-10-15T09:11:39.083Z,9.07
2022-10-15T09:14:08.412Z,9.52
2022-10-15T09:16:38.985Z,9.25
2022-10-15T09:19:14.826Z,8.55
2022-10-15T09:21:42.520Z,9.52
2022-10-15T09:24:12.001Z,9.10
2022-10-15T09:26:52.545Z,9.40
2022-10-15T09:29:26.035Z,9.55
2022-10-15T09:32:06.594Z,8.85
2022-10-15T09:34:38.740Z,9.18
2022-10-15T09:39:42.232Z,8.90
2022-10-15T09:42:18.613Z,9.38
2022-10-15T09:44:47.001Z,8.98
2022-10-15T09:47:25.063Z,9.10
2022-10-15T09:49:52.823Z,9.43
2022-10-15T09:52:27.581Z,9.40
2022-10-15T09:55:04.477Z,9.93
2022-10-15T09:57:32.586Z,10.07
2022-10-15T10:00:02.305Z,11.00
2022-10-15T10:02:31.509Z,11.88
2022-10-15T10:04:59.210Z,12.32
2022-10-15T10:07:34.905Z,10.00
2022-10-15T10:10:04.977Z,9.43
2022-10-15T10:12:34.138Z,11.27
2022-10-15T10:15:04.688Z,9.07
2022-10-15T10:17:33.762Z,10.07
2022-10-15T10:20:13.911Z,9.52
2022-10-15T10:22:50.363Z,9.07
2022-10-15T10:25:34.665Z,10.10
2022-10-15T10:28:15.899Z,9.30
2022-10-15T10:30:51.014Z,9.38
2022-10-15T10:33:26.012Z,9.98
2022-10-15T10:35:53.819Z,9.50
2022-10-15T10:38:22.627Z,10.23
2022-10-15T10:40:55.266Z,9.90
2022-10-15T10:43:26.938Z,9.45
2022-10-15T10:45:57.037Z,9.45
2022-10-15T10:48:28.523Z,9.52
2022-10-15T10:51:12.884Z,9.88
2022-10-15T10:53:49.653Z,9.48
2022-10-15T10:56:19.514Z,10.00
2022-10-15T10:58:47.189Z,10.20
2022-10-15T11:01:15.168Z,9.48
2022-10-15T11:03:46.730Z,10.05
2022-10-15T11:06:25.830Z,9.52
2022-10-15T11:09:03.690Z,9.48
2022-10-15T11:11:35.413Z,9.85
2022-10-15T11:14:09.209Z,9.60
2022-10-15T11:16:43.203Z,10.02
2022-10-15T11:19:50.259Z,9.18
2022-10-15T11:22:26.033Z,9.55
2022-10-15T11:25:07.091Z,10.35
2022-10-15T11:27:52.648Z,10.07
2022-10-15T11:30:31.518Z,10.02
2022-10-15T11:33:09.957Z,10.02
2022-10-15T11:36:00.046Z,9.48
2022-10-15T11:38:34.545Z,9.52
2022-10-15T11:41:16.831Z,10.20
2022-10-15T11:46:35.025Z,9.57
2022-10-15T11:49:13.674Z,9.68
2022-10-15T11:51:56.900Z,9.48
2022-10-15T11:54:28.619Z,10.00
2022-10-15T11:56:59.776Z,10.48
2022-10-15T11:59:34.717Z,10.00
2022-10-15T12:02:05.077Z,10.35
2022-10-15T12:04:37.673Z,10.10
2022-10-15T12:07:08.322Z,9.55
2022-10-15T12:09:39.296Z,10.35
2022-10-15T12:12:10.964Z,10.05
2022-10-15T12:14:41.556Z,10.10
2022-10-15T12:17:14.378Z,9.70
2022-10-15T12:19:45.932Z,10.48
2022-10-15T12:22:34.131Z,9.98
2022-10-15T12:25:02.523Z,10.45
2022-10-15T12:27:35.488Z,10.00
2022-10-15T12:30:21.955Z,10.23
2022-10-15T12:32:50.122Z,10.02
2022-10-15T12:35:24.579Z,10.07
2022-10-15T12:37:53.777Z,10.13
2022-10-15T12:40:28.039Z,9.98
2022-10-15T12:42:57.132Z,9.77
2022-10-15T12:45:25.836Z,9.68
2022-10-15T12:47:55.086Z,9.90
2022-10-15T12:50:24.792Z,10.27
2022-10-15T12:53:01.613Z,9.70
2022-10-15T12:55:32.611Z,9.45
2022-10-15T12:58:03.544Z,9.70
2022-10-15T13:00:37.447Z,9.57
2022-10-15T13:03:24.000Z,9.43
2022-10-15T13:05:54.120Z,9.35
2022-10-15T13:08:26.116Z,9.50
2022-10-15T13:10:56.557Z,9.65
2022-10-15T13:13:25.716Z,9.63
2022-10-15T13:15:58.430Z,9.68
2022-10-15T13:18:27.269Z,9.32
2022-10-15T13:20:56.478Z,9.60
2022-10-15T13:23:31.617Z,9.25
2022-10-15T13:26:13.351Z,10.48
2022-10-15T13:28:42.759Z,9.60
2022-10-15T13:31:16.468Z,9.60
2022-10-15T13:33:46.457Z,10.20
2022-10-15T13:36:21.994Z,14.65
2022-10-15T13:38:56.535Z,10.82
2022-10-15T13:41:26.428Z,9.80
2022-10-15T13:43:58.642Z,10.32
2022-10-15T13:46:27.799Z,10.02
2022-10-15T13:48:59.670Z,9.65
2022-10-15T13:51:35.333Z,13.57
2022-10-15T13:54:09.872Z,10.30
2022-10-15T13:56:37.848Z,9.73
2022-10-15T13:59:05.834Z,9.55
2022-10-15T14:01:34.911Z,10.35
2022-10-15T14:04:03.686Z,9.95
2022-10-15T14:06:32.769Z,10.95
2022-10-15T14:09:02.209Z,10.30
2022-10-15T14:11:31.725Z,10.25
2022-10-15T14:14:00.496Z,9.75
2022-10-15T14:16:30.819Z,9.43
2022-10-15T14:19:00.724Z,10.05
2022-10-15T14:21:32.149Z,10.23
2022-10-15T14:24:07.240Z,9.82
2022-10-15T14:26:36.329Z,9.65
2022-10-15T14:29:04.478Z,9.88
2022-10-15T14:31:38.106Z,11.57
2022-10-15T14:34:06.135Z,9.95
2022-10-15T14:36:42.819Z,9.65
2022-10-15T14:39:28.578Z,10.05
2022-10-15T14:41:59.029Z,10.38
2022-10-15T14:44:27.213Z,10.32
2022-10-15T14:47:02.370Z,9.73
2022-10-15T14:49:32.226Z,10.57
2022-10-15T14:52:03.421Z,10.15
2022-10-15T14:54:39.667Z,10.03
2022-10-15T14:57:17.656Z,10.05
2022-10-15T14:59:45.578Z,9.70
2022-10-15T15:02:16.361Z,10.18
2022-10-15T15:04:45.314Z,11.15
2022-10-15T15:07:20.754Z,10.40
2022-10-15T15:09:49.214Z,10.80
2022-10-15T15:12:24.058Z,10.98
2022-10-15T15:14:55.139Z,10.00
2022-10-15T15:17:24.836Z,10.18
2022-10-15T15:19:54.541Z,10.30
2022-10-15T15:22:26.603Z,9.88
2022-10-15T15:24:54.658Z,9.82
2022-10-15T15:27:26.471Z,10.35
2022-10-15T15:29:54.730Z,9.90
2022-10-15T15:32:23.767Z,9.65
2022-10-15T15:34:52.946Z,9.90
2022-10-15T15:37:21.937Z,9.68
2022-10-15T15:39:50.928Z,9.63
2022-10-15T15:42:20.742Z,11.30
2022-10-15T15:44:51.189Z,9.55
2022-10-15T15:47:22.112Z,9.57
2022-10-15T15:49:50.684Z,9.88
2022-10-15T15:52:19.114Z,9.60
2022-10-15T15:57:28.024Z,9.32
2022-10-15T15:59:57.194Z,9.60
2022-10-15T16:02:24.826Z,9.55
2022-10-15T16:04:52.575Z,9.45
2022-10-15T16:07:21.344Z,9.98
2022-10-15T16:09:49.740Z,9.60
2022-10-15T16:12:17.374Z,10.25
2022-10-15T16:14:45.022Z,10.07
2022-10-15T16:17:14.100Z,11.60
2022-10-15T16:19:41.939Z,11.23
2022-10-15T16:22:09.620Z,11.00
2022-10-15T16:24:37.289Z,11.82
2022-10-15T16:27:05.165Z,11.25
2022-10-15T16:29:32.779Z,11.18
2022-10-15T16:32:00.532Z,11.40
2022-10-15T16:34:29.568Z,10.65
2022-10-15T16:36:57.249Z,10.35
2022-10-15T16:39:25.038Z,11.02
2022-10-15T16:41:52.868Z,10.55
2022-10-15T16:44:20.982Z,12.85
2022-10-15T16:46:48.853Z,11.82
2022-10-15T16:49:16.630Z,11.65
2022-10-15T16:51:45.995Z,10.38
2022-10-15T16:54:15.508Z,11.80
2022-10-15T16:56:44.747Z,11.05
2022-10-15T16:59:13.094Z,11.25
2022-10-15T17:01:40.953Z,11.52
2022-10-15T17:04:08.888Z,10.52
2022-10-15T17:06:36.790Z,10.43
2022-10-15T17:09:06.064Z,9.75
2022-10-15T17:11:35.830Z,10.02
2022-10-15T17:14:05.902Z,11.23
2022-10-15T17:16:35.255Z,10.32
2022-10-15T17:19:03.136Z,10.68
2022-10-15T17:21:32.315Z,10.57
2022-10-15T17:24:01.351Z,10.95
2022-10-15T17:26:33.285Z,10.00
2022-10-15T17:29:01.465Z,9.52
2022-10-15T17:31:29.483Z,9.88
2022-10-15T17:33:58.737Z,9.93
2022-10-15T17:36:29.326Z,9.75
2022-10-15T17:38:57.668Z,9.50
2022-10-15T17:41:27.323Z,10.07
2022-10-15T17:43:56.853Z,10.10
2022-10-15T17:46:26.286Z,10.20
2022-10-15T17:48:54.573Z,10.52
2022-10-15T17:51:23.949Z,10.45
2022-10-15T17:53:53.586Z,11.27
2022-10-15T17:56:22.771Z,10.45
2022-10-15T17:58:50.796Z,10.90
2022-10-15T18:01:33.353Z,10.70
2022-10-15T18:04:07.930Z,10.18
2022-10-15T18:06:35.693Z,10.20
2022-10-15T18:09:03.430Z,10.50
2022-10-15T18:11:32.626Z,10.40
2022-10-15T18:14:00.395Z,10.30
2022-10-15T18:16:29.516Z,10.40
2022-10-15T18:18:57.488Z,9.63
2022-10-15T18:21:27.439Z,9.93
2022-10-15T18:23:56.471Z,9.90
2022-10-15T18:26:24.590Z,10.35
2022-10-15T18:28:54.056Z,18.70
2022-10-15T18:31:22.462Z,36.33
2022-10-15T18:33:53.287Z,32.63
2022-10-15T18:36:23.216Z,22.75
2022-10-15T18:38:50.971Z,15.95
2022-10-15T18:41:20.648Z,12.18
2022-10-15T18:43:51.807Z,12.20
2022-10-15T18:46:20.214Z,11.68
2022-10-15T18:48:48.014Z,12.00
2022-10-15T18:51:17.025Z,13.05
2022-10-15T18:53:44.954Z,13.57
2022-10-15T18:56:13.816Z,15.10
2022-10-15T18:58:43.267Z,14.05
2022-10-15T19:01:11.756Z,14.05
2022-10-15T19:03:39.521Z,12.48
2022-10-15T19:06:07.549Z,12.77
2022-10-15T19:08:36.572Z,10.57
2022-10-15T19:11:06.108Z,11.45
2022-10-15T19:13:33.743Z,10.23
2022-10-15T19:16:02.716Z,10.88
2022-10-15T19:18:30.623Z,11.02
2022-10-15T19:20:58.266Z,10.38
2022-10-15T19:23:25.959Z,9.60
2022-10-15T19:25:55.292Z,10.80
2022-10-15T19:28:23.019Z,10.43
2022-10-15T19:30:57.715Z,10.40
2022-10-15T19:33:25.737Z,10.07
2022-10-15T19:35:53.983Z,9.50
2022-10-15T19:38:21.702Z,9.65
2022-10-15T19:40:50.273Z,10.05
2022-10-15T19:43:20.722Z,9.82
2022-10-15T19:45:48.610Z,10.13
2022-10-15T19:48:17.915Z,9.82
2022-10-15T19:50:47.420Z,10.00
2022-10-15T19:53:17.761Z,9.90
2022-10-15T19:55:47.191Z,10.95
2022-10-15T19:58:14.837Z,10.73
2022-10-15T20:00:49.561Z,10.07
2022-10-15T20:03:17.221Z,10.88
2022-10-15T20:05:44.888Z,11.85
2022-10-15T20:08:12.698Z,13.02
2022-10-15T20:10:40.637Z,12.30
2022-10-15T20:13:08.560Z,13.10
2022-10-15T20:15:36.192Z,12.48
2022-10-15T20:18:05.380Z,11.40
2022-10-15T20:20:35.673Z,10.73
2022-10-15T20:23:03.525Z,10.77
2022-10-15T20:25:31.428Z,10.55
2022-10-15T20:27:59.165Z,10.60
2022-10-15T20:30:27.478Z,10.30
2022-10-15T20:32:55.138Z,10.55
2022-10-15T20:35:24.340Z,10.88
2022-10-15T20:37:52.004Z,10.52
2022-10-15T20:40:19.664Z,10.68
2022-10-15T20:42:47.336Z,10.77
2022-10-15T20:45:15.126Z,10.55
2022-10-15T20:47:45.031Z,11.48
2022-10-15T20:50:15.175Z,9.77
2022-10-15T20:52:44.427Z,9.68
2022-10-15T20:55:12.243Z,9.85
2022-10-15T20:57:40.075Z,10.10
2022-10-15T21:00:09.568Z,10.10
2022-10-15T21:02:37.292Z,10.48
2022-10-15T21:05:05.362Z,9.80
2022-10-15T21:07:33.062Z,10.52
2022-10-15T21:10:02.250Z,9.35
2022-10-15T21:12:29.962Z,10.32
2022-10-15T21:14:57.680Z,9.88
2022-10-15T21:17:25.604Z,10.52
2022-10-15T21:19:53.703Z,9.77
2022-10-15T21:22:21.457Z,10.07
2022-10-15T21:24:49.149Z,9.95
2022-10-15T21:27:18.262Z,10.60
2022-10-15T21:29:46.835Z,11.13
2022-10-15T21:32:14.574Z,10.70
2022-10-15T21:34:42.233Z,10.77
2022-10-15T21:37:09.906Z,10.75
2022-10-15T21:39:37.557Z,10.90
2022-10-15T21:42:05.386Z,10.23
2022-10-15T21:44:34.514Z,10.07
2022-10-15T21:47:02.144Z,9.98
2022-10-15T21:49:29.800Z,10.13
2022-10-15T21:51:57.487Z,10.05
2022-10-15T21:54:25.347Z,10.65
2022-10-15T21:56:54.461Z,10.20
2022-10-15T21:59:23.257Z,10.02
2022-10-15T22:01:52.765Z,9.90
2022-10-15T22:04:20.741Z,9.98
2022-10-15T22:06:50.107Z,10.35
2022-10-15T22:09:17.801Z,10.43
2022-10-15T22:11:45.677Z,9.88
2022-10-15T22:14:14.861Z,10.43
2022-10-15T22:16:43.213Z,10.05
2022-10-15T22:19:15.165Z,10.00
2022-10-15T22:21:44.002Z,10.32
2022-10-15T22:24:14.939Z,9.80
2022-10-15T22:26:44.477Z,9.90
2022-10-15T22:29:18.241Z,9.68
2022-10-15T22:31:45.872Z,10.93
2022-10-15T22:34:15.042Z,9.93
2022-10-15T22:36:42.841Z,10.38
2022-10-15T22:39:13.208Z,10.00
2022-10-15T22:41:42.336Z,9.82
2022-10-15T22:44:11.203Z,10.20
2022-10-15T22:46:39.962Z,9.95
2022-10-15T22:49:09.028Z,9.65
2022-10-15T22:51:38.359Z,10.25
2022-10-15T22:54:06.463Z,9.93
2022-10-15T22:56:34.831Z,10.20
2022-10-15T22:59:02.750Z,9.68
2022-10-15T23:01:32.002Z,10.18
2022-10-15T23:04:01.638Z,9.82
2022-10-15T23:06:30.179Z,10.00
2022-10-15T23:09:00.536Z,9.88
2022-10-15T23:11:30.180Z,10.00
2022-10-15T23:13:59.862Z,9.80
2022-10-15T23:16:29.013Z,9.63
2022-10-15T23:18:58.108Z,10.00
2022-10-15T23:21:30.019Z,9.75
2022-10-15T23:23:59.242Z,10.40
2022-10-15T23:26:26.906Z,9.57
2022-10-15T23:28:56.156Z,10.10
2022-10-15T23:31:25.986Z,10.38
2022-10-15T23:33:54.394Z,9.73
2022-10-15T23:36:22.550Z,9.45
2022-10-15T23:38:51.106Z,10.02
2022-10-15T23:41:20.758Z,10.00
2022-10-15T23:43:48.645Z,9.95
2022-10-15T23:46:16.638Z,10.13
2022-10-15T23:48:44.426Z,10.02
2022-10-15T23:51:13.683Z,10.48
2022-10-15T23:53:41.500Z,12.52
2022-10-15T23:56:09.463Z,11.73
2022-10-15T23:58:38.801Z,11.60
